createdAt,value
2019-04-22T00:02:15.743Z,62.10
2019-04-22T00:04:58.953Z,61.86
2019-04-22T00:07:42.055Z,61.16
2019-04-22T00:10:21.107Z,60.98
2019-04-22T00:12:53.123Z,61.74
2019-04-22T00:15:19.703Z,62.53
2019-04-22T00:20:35.496Z,61.92
2019-04-22T00:23:04.055Z,60.86
2019-04-22T00:25:43.913Z,62.55
2019-04-22T00:28:15.662Z,63.10
2019-04-22T00:30:46.963Z,61.82
2019-04-22T00:33:20.469Z,64.05
2019-04-22T00:35:54.969Z,63.98
2019-04-22T00:38:33.433Z,64.42
2019-04-22T00:41:00.949Z,64.84
2019-04-22T00:43:42.196Z,63.84
2019-04-22T00:46:15.633Z,64.61
2019-04-22T00:48:50.103Z,64.34
2019-04-22T00:51:35.988Z,64.90
2019-04-22T00:53:46.785Z,64.69
2019-04-22T00:56:22.030Z,64.54
2019-04-22T00:58:50.317Z,65.09
2019-04-22T01:01:44.028Z,65.88
2019-04-22T01:04:17.230Z,66.32
2019-04-22T01:06:32.447Z,65.94
2019-04-22T01:09:12.277Z,66.90
2019-04-22T01:11:37.597Z,66.64
2019-04-22T01:14:19.783Z,66.47
2019-04-22T01:16:48.899Z,66.21
2019-04-22T01:19:26.022Z,67.31
2019-04-22T01:21:52.338Z,66.96
2019-04-22T01:24:29.425Z,65.86
2019-04-22T01:26:53.828Z,65.28
2019-04-22T01:29:28.037Z,66.61
2019-04-22T01:31:47.347Z,65.37
2019-04-22T01:34:33.608Z,65.63
2019-04-22T01:37:12.225Z,65.51
2019-04-22T01:39:50.051Z,64.26
2019-04-22T01:42:24.587Z,66.15
2019-04-22T01:44:50.924Z,64.81
2019-04-22T01:47:31.354Z,64.28
2019-04-22T01:50:06.163Z,65.99
2019-04-22T01:52:38.498Z,65.29
2019-04-22T01:55:17.798Z,64.20
2019-04-22T01:57:41.927Z,64.60
2019-04-22T02:00:11.484Z,64.52
2019-04-22T02:02:48.772Z,64.75
2019-04-22T02:05:24.404Z,64.93
2019-04-22T02:08:01.020Z,66.32
2019-04-22T02:10:44.162Z,66.32
2019-04-22T02:13:11.513Z,66.91
2019-04-22T02:15:43.741Z,66.82
2019-04-22T02:18:18.327Z,66.76
2019-04-22T02:21:03.359Z,66.74
2019-04-22T02:44:10.184Z,68.78
2019-04-22T02:51:33.489Z,68.76
2019-04-22T02:54:29.761Z,68.39
2019-04-22T02:59:28.800Z,68.23
2019-04-22T03:04:22.469Z,68.14
2019-04-22T03:06:52.379Z,67.49
2019-04-22T03:09:41.110Z,67.27
2019-04-22T03:12:16.395Z,67.19
2019-04-22T03:14:40.449Z,67.31
2019-04-22T03:17:20.632Z,67.92
2019-04-22T03:25:23.791Z,68.65
2019-04-22T03:35:37.521Z,69.41
2019-04-22T03:37:53.394Z,69.33
2019-04-22T03:48:05.396Z,69.23
2019-04-22T03:50:38.996Z,68.82
2019-04-22T03:53:14.897Z,68.53
2019-04-22T03:55:43.347Z,68.17
2019-04-22T03:58:10.897Z,68.88
2019-04-22T04:00:55.740Z,68.97
2019-04-22T04:03:29.178Z,68.51
2019-04-22T04:10:58.104Z,69.21
2019-04-22T04:13:39.457Z,70.21
2019-04-22T04:16:10.637Z,70.28
2019-04-22T04:29:22.200Z,70.72
2019-04-22T04:31:43.206Z,70.75
2019-04-22T04:34:19.417Z,70.09
2019-04-22T04:36:41.679Z,69.30
2019-04-22T04:41:52.090Z,70.13
2019-04-22T04:46:58.400Z,69.36
2019-04-22T04:57:07.265Z,67.00
2019-04-22T05:00:11.411Z,66.64
2019-04-22T05:05:00.148Z,65.14
2019-04-22T05:09:55.275Z,63.79
2019-04-22T05:12:34.049Z,60.75
2019-04-22T05:15:00.909Z,57.80
2019-04-22T05:17:36.882Z,55.65
2019-04-22T05:20:09.112Z,56.04
2019-04-22T05:22:34.173Z,53.68
2019-04-22T05:25:15.154Z,50.36
2019-04-22T05:27:39.679Z,49.77
2019-04-22T05:30:25.350Z,47.44
2019-04-22T05:35:20.587Z,44.99
2019-04-22T05:37:58.060Z,44.42
2019-04-22T05:42:56.301Z,42.81
2019-04-22T05:45:49.483Z,41.16
2019-04-22T05:48:00.977Z,40.06
2019-04-22T05:50:44.211Z,39.09
2019-04-22T05:53:07.231Z,39.04
2019-04-22T05:55:46.677Z,40.46
2019-04-22T05:58:15.652Z,43.41
2019-04-22T06:01:29.057Z,45.66
2019-04-22T06:03:39.704Z,47.02
2019-04-22T06:06:13.765Z,44.37
2019-04-22T06:08:45.598Z,44.17
2019-04-22T06:11:22.821Z,45.25
2019-04-22T06:13:53.329Z,46.34
2019-04-22T06:16:31.257Z,45.42
2019-04-22T06:19:08.737Z,44.98
2019-04-22T06:21:38.669Z,43.77
2019-04-22T06:29:15.285Z,43.88
2019-04-22T06:32:11.801Z,42.16
2019-04-22T06:34:27.052Z,42.62
2019-04-22T06:37:01.883Z,41.64
2019-04-22T06:39:28.168Z,40.00
2019-04-22T06:42:01.190Z,42.62
2019-04-22T06:47:06.553Z,40.85
2019-04-22T06:52:17.046Z,40.00
2019-04-22T06:54:50.389Z,39.76
2019-04-22T06:57:23.192Z,39.48
2019-04-22T06:59:52.068Z,40.47
2019-04-22T07:02:35.870Z,38.22
2019-04-22T07:05:01.033Z,36.06
2019-04-22T07:07:33.351Z,36.06
2019-04-22T07:10:18.267Z,39.26
2019-04-22T07:12:36.557Z,35.35
2019-04-22T07:15:23.828Z,35.35
2019-04-22T07:17:49.084Z,36.08
2019-04-22T07:20:20.019Z,36.08
2019-04-22T07:23:11.940Z,36.95
2019-04-22T07:25:25.945Z,36.34
2019-04-22T07:28:02.054Z,35.95
2019-04-22T07:35:45.947Z,32.51
2019-04-22T07:38:14.310Z,33.99
2019-04-22T07:40:43.346Z,33.02
2019-04-22T07:43:20.175Z,34.25
2019-04-22T07:45:49.301Z,35.09
2019-04-22T07:53:27.814Z,34.03
2019-04-22T07:56:00.176Z,34.39
2019-04-22T07:58:35.564Z,34.14
2019-04-22T08:01:12.152Z,33.98
2019-04-22T08:03:51.503Z,33.85
2019-04-22T08:06:20.722Z,34.00
2019-04-22T08:08:58.478Z,34.15
2019-04-22T08:11:37.533Z,34.02
2019-04-22T08:13:55.269Z,33.68
2019-04-22T08:16:28.476Z,34.30
2019-04-22T08:19:02.964Z,35.40
2019-04-22T08:21:38.442Z,35.14
2019-04-22T08:24:06.350Z,35.03
2019-04-22T08:26:38.318Z,36.06
2019-04-22T08:29:22.129Z,32.66
2019-04-22T08:31:48.655Z,32.40
2019-04-22T08:34:23.222Z,32.26
2019-04-22T08:39:25.527Z,32.88
2019-04-22T08:41:57.589Z,31.85
2019-04-22T08:44:52.221Z,32.21
2019-04-22T08:47:29.148Z,32.91
2019-04-22T08:49:52.062Z,33.18
2019-04-22T08:52:16.427Z,30.80
2019-04-22T08:54:50.801Z,31.56
2019-04-22T08:57:26.143Z,31.29
2019-04-22T08:59:59.056Z,32.21
2019-04-22T09:02:48.192Z,30.72
2019-04-22T09:05:10.867Z,30.21
2019-04-22T09:07:31.557Z,29.85
2019-04-22T09:10:24.363Z,31.73
2019-04-22T09:12:53.331Z,32.21
2019-04-22T09:15:13.244Z,31.24
2019-04-22T09:17:47.799Z,30.71
2019-04-22T09:20:20.477Z,28.62
2019-04-22T09:22:54.603Z,31.65
2019-04-22T09:25:27.438Z,28.81
2019-04-22T09:27:57.842Z,31.47
2019-04-22T09:30:40.418Z,30.83
2019-04-22T09:33:11.100Z,32.40
2019-04-22T09:35:45.069Z,30.95
2019-04-22T09:38:29.561Z,33.51
2019-04-22T09:40:50.371Z,31.27
2019-04-22T09:43:26.463Z,29.65
2019-04-22T09:45:54.387Z,29.45
2019-04-22T09:48:33.181Z,31.27
2019-04-22T09:51:11.842Z,29.47
2019-04-22T09:53:32.239Z,28.26
2019-04-22T09:56:03.794Z,32.30
2019-04-22T09:58:39.538Z,27.07
2019-04-22T10:01:26.107Z,26.89
2019-04-22T10:03:55.990Z,27.32
2019-04-22T10:06:27.875Z,30.02
2019-04-22T10:09:12.943Z,29.63
2019-04-22T10:11:32.600Z,27.40
2019-04-22T10:14:01.288Z,29.80
2019-04-22T10:16:39.320Z,26.41
2019-04-22T10:19:05.730Z,27.66
2019-04-22T10:21:44.808Z,27.28
2019-04-22T10:24:09.291Z,29.31
2019-04-22T10:26:44.127Z,26.67
2019-04-22T10:29:19.610Z,26.93
2019-04-22T10:34:15.676Z,26.67
2019-04-22T10:36:33.226Z,25.32
2019-04-22T10:39:06.532Z,26.49
2019-04-22T10:41:40.839Z,25.68
2019-04-22T10:44:13.001Z,26.46
2019-04-22T10:46:44.546Z,24.43
2019-04-22T10:49:16.141Z,25.47
2019-04-22T10:51:48.591Z,28.06
2019-04-22T10:54:19.828Z,25.23
2019-04-22T10:56:52.494Z,25.05
2019-04-22T10:59:24.703Z,24.90
2019-04-22T11:01:55.947Z,26.31
2019-04-22T11:04:28.111Z,28.56
2019-04-22T11:07:03.787Z,25.80
2019-04-22T11:09:34.099Z,24.76
2019-04-22T11:12:11.907Z,24.07
2019-04-22T11:14:42.795Z,24.00
2019-04-22T11:17:13.518Z,25.08
2019-04-22T11:19:45.833Z,24.88
2019-04-22T11:22:23.016Z,21.15
2019-04-22T11:24:50.906Z,19.65
2019-04-22T11:27:23.315Z,22.95
2019-04-22T11:29:55.378Z,23.87
2019-04-22T11:32:26.706Z,23.35
2019-04-22T11:34:58.107Z,22.76
2019-04-22T11:37:30.340Z,20.96
2019-04-22T11:40:11.482Z,20.61
2019-04-22T11:42:36.060Z,21.11
2019-04-22T11:45:09.154Z,21.27
2019-04-22T11:47:41.426Z,21.92
2019-04-22T11:50:15.749Z,21.17
2019-04-22T11:52:47.214Z,22.20
2019-04-22T11:55:19.177Z,21.79
2019-04-22T11:57:51.965Z,22.73
2019-04-22T12:00:30.727Z,24.52
2019-04-22T12:03:03.182Z,23.81
2019-04-22T12:05:34.462Z,27.47
2019-04-22T12:08:07.073Z,25.50
2019-04-22T12:10:48.290Z,26.17
2019-04-22T12:13:12.240Z,25.66
2019-04-22T12:15:44.757Z,26.71
2019-04-22T12:18:17.314Z,27.18
2019-04-22T12:20:48.853Z,25.54
2019-04-22T12:23:21.120Z,25.46
2019-04-22T12:26:00.907Z,25.48
2019-04-22T12:28:26.845Z,27.00
2019-04-22T12:30:59.629Z,26.66
2019-04-22T12:33:31.643Z,28.20
2019-04-22T12:36:04.513Z,27.68
2019-04-22T12:38:37.672Z,26.54
2019-04-22T12:41:11.990Z,26.09
2019-04-22T12:43:43.104Z,26.34
2019-04-22T12:46:14.556Z,25.56
2019-04-22T12:48:46.902Z,25.96
2019-04-22T12:51:18.893Z,26.32
2019-04-22T12:53:52.800Z,25.00
2019-04-22T12:56:25.674Z,26.03
2019-04-22T12:58:59.310Z,25.87
2019-04-22T13:01:30.921Z,24.82
2019-04-22T13:04:08.985Z,24.31
2019-04-22T13:06:35.590Z,25.04
2019-04-22T13:09:08.803Z,24.40
2019-04-22T13:11:40.770Z,23.55
2019-04-22T13:14:14.805Z,24.25
2019-04-22T13:16:47.404Z,24.07
2019-04-22T13:19:20.964Z,24.31
2019-04-22T13:21:51.500Z,26.31
2019-04-22T13:24:23.788Z,27.49
2019-04-22T13:26:55.098Z,27.16
2019-04-22T13:29:27.598Z,26.44
2019-04-22T13:32:00.592Z,25.56
2019-04-22T13:34:40.411Z,26.43
2019-04-22T13:37:07.413Z,25.84
2019-04-22T13:39:39.048Z,25.58
2019-04-22T13:42:15.393Z,26.63
2019-04-22T13:44:44.145Z,25.68
2019-04-22T13:47:34.728Z,24.28
2019-04-22T13:52:55.769Z,23.95
2019-04-22T13:55:23.943Z,24.97
2019-04-22T13:57:45.384Z,25.59
2019-04-22T14:00:04.733Z,25.98
2019-04-22T14:03:02.334Z,26.54
2019-04-22T14:05:34.961Z,26.66
2019-04-22T14:08:08.154Z,27.32
2019-04-22T14:10:40.552Z,27.10
2019-04-22T14:13:12.206Z,27.41
2019-04-22T14:15:43.856Z,28.22
2019-04-22T14:18:16.945Z,28.74
2019-04-22T14:20:49.180Z,28.91
2019-04-22T14:23:20.643Z,29.10
2019-04-22T14:25:52.785Z,28.97
2019-04-22T14:28:27.313Z,29.48
2019-04-22T14:30:57.992Z,29.34
2019-04-22T14:33:30.080Z,29.33
2019-04-22T14:36:02.553Z,29.39
2019-04-22T14:38:34.765Z,29.62
2019-04-22T14:41:08.310Z,29.80
2019-04-22T14:44:42.411Z,29.71
2019-04-22T14:46:43.583Z,30.21
2019-04-22T14:49:02.834Z,30.91
2019-04-22T14:51:39.231Z,31.22
2019-04-22T14:54:09.803Z,31.68
2019-04-22T14:56:24.359Z,31.98
2019-04-22T14:58:56.617Z,32.41
2019-04-22T15:01:28.792Z,32.49
2019-04-22T15:04:00.826Z,32.99
2019-04-22T15:06:32.075Z,32.77
2019-04-22T15:09:03.834Z,33.13
2019-04-22T15:11:52.828Z,33.47
2019-04-22T15:14:11.505Z,33.47
2019-04-22T15:17:05.053Z,33.49
2019-04-22T15:19:56.063Z,33.28
2019-04-22T15:22:28.442Z,33.31
2019-04-22T15:25:00.747Z,33.59
2019-04-22T15:27:33.341Z,33.75
2019-04-22T15:30:05.747Z,33.45
2019-04-22T15:32:36.936Z,33.67
2019-04-22T15:35:09.182Z,33.80
2019-04-22T15:37:41.402Z,33.80
2019-04-22T15:40:13.222Z,34.62
2019-04-22T15:42:45.203Z,35.06
2019-04-22T15:45:18.931Z,35.44
2019-04-22T15:47:52.380Z,35.65
2019-04-22T15:50:24.562Z,35.95
2019-04-22T15:52:58.881Z,36.36
2019-04-22T15:55:29.162Z,36.71
2019-04-22T15:58:01.796Z,37.15
2019-04-22T16:00:47.205Z,37.00
2019-04-22T16:03:10.059Z,37.07
2019-04-22T16:05:39.745Z,37.02
2019-04-22T16:08:12.815Z,37.51
2019-04-22T16:10:44.147Z,37.93
2019-04-22T16:13:22.353Z,38.45
2019-04-22T16:15:49.091Z,38.63
2019-04-22T16:18:20.230Z,39.09
2019-04-22T16:20:52.407Z,39.27
2019-04-22T16:23:38.505Z,39.37
2019-04-22T16:26:18.009Z,39.38
2019-04-22T16:28:52.228Z,39.42
2019-04-22T16:31:22.310Z,39.56
2019-04-22T16:33:54.367Z,39.82
2019-04-22T16:36:26.941Z,40.07
2019-04-22T16:38:58.081Z,40.09
2019-04-22T16:41:32.988Z,40.84
2019-04-22T16:44:04.643Z,41.02
2019-04-22T16:46:37.327Z,41.02
2019-04-22T16:49:09.776Z,41.53
2019-04-22T16:51:42.222Z,41.78
2019-04-22T16:54:13.851Z,41.72
2019-04-22T16:56:45.769Z,42.03
2019-04-22T16:59:17.331Z,42.26
2019-04-22T17:02:08.481Z,42.16
2019-04-22T17:05:07.480Z,41.83
2019-04-22T17:07:40.147Z,41.83
2019-04-22T17:10:11.626Z,42.13
2019-04-22T17:12:50.813Z,42.19
2019-04-22T17:15:18.353Z,42.15
2019-04-22T17:17:49.521Z,42.26
2019-04-22T17:20:21.005Z,42.79
2019-04-22T17:22:53.510Z,43.02
2019-04-22T17:25:24.851Z,43.81
2019-04-22T17:27:57.258Z,43.81
2019-04-22T17:30:29.212Z,43.67
2019-04-22T17:33:00.873Z,43.80
2019-04-22T17:35:34.054Z,44.22
2019-04-22T17:38:16.405Z,44.22
2019-04-22T17:40:51.146Z,44.28
2019-04-22T17:43:42.045Z,44.15
2019-04-22T17:46:17.718Z,44.35
2019-04-22T17:49:17.028Z,44.56
2019-04-22T17:52:07.579Z,44.73
2019-04-22T17:54:38.598Z,44.18
2019-04-22T17:57:09.994Z,44.38
2019-04-22T17:59:41.858Z,44.64
2019-04-22T18:02:09.656Z,44.84
2019-04-22T18:04:33.711Z,45.08
2019-04-22T18:07:31.144Z,45.35
2019-04-22T18:15:04.305Z,46.26
2019-04-22T18:17:35.629Z,46.29
2019-04-22T18:20:08.905Z,46.41
2019-04-22T18:22:33.094Z,46.47
2019-04-22T18:25:06.341Z,46.60
2019-04-22T18:28:09.085Z,46.80
2019-04-22T18:30:16.720Z,46.80
2019-04-22T18:32:53.323Z,47.03
2019-04-22T18:35:20.901Z,47.12
2019-04-22T18:38:03.285Z,47.25
2019-04-22T18:40:30.573Z,47.48
2019-04-22T18:43:04.814Z,47.61
2019-04-22T18:48:05.362Z,47.60
2019-04-22T18:51:06.456Z,48.00
2019-04-22T18:53:50.851Z,47.92
2019-04-22T18:56:25.532Z,47.73
2019-04-22T18:58:52.754Z,47.57
2019-04-22T19:01:12.814Z,47.76
2019-04-22T19:03:54.285Z,47.64
2019-04-22T19:09:17.094Z,48.16
2019-04-22T19:11:51.718Z,48.51
2019-04-22T19:14:17.890Z,48.34
2019-04-22T19:16:57.537Z,48.57
2019-04-22T19:19:38.379Z,48.78
2019-04-22T19:21:51.387Z,48.75
2019-04-22T19:24:24.537Z,49.03
2019-04-22T19:27:02.937Z,48.91
2019-04-22T19:29:39.167Z,49.10
2019-04-22T19:32:08.383Z,49.25
2019-04-22T19:34:38.195Z,49.14
2019-04-22T19:37:15.349Z,49.38
2019-04-22T19:39:53.097Z,49.73
2019-04-22T19:42:30.493Z,49.66
2019-04-22T19:44:55.189Z,49.97
2019-04-22T19:47:31.844Z,50.11
2019-04-22T19:50:09.860Z,51.21
2019-04-22T19:52:33.712Z,51.80
2019-04-22T19:55:07.941Z,51.87
2019-04-22T19:57:41.936Z,52.61
2019-04-22T20:00:14.463Z,53.32
2019-04-22T20:03:16.629Z,54.02
2019-04-22T20:05:48.072Z,54.33
2019-04-22T20:08:38.145Z,54.84
2019-04-22T20:10:52.267Z,55.26
2019-04-22T20:13:36.543Z,55.31
2019-04-22T20:15:54.002Z,55.25
2019-04-22T20:18:43.676Z,55.47
2019-04-22T20:21:12.961Z,55.60
2019-04-22T20:23:32.905Z,56.08
2019-04-22T20:26:08.620Z,56.18
2019-04-22T20:28:51.246Z,56.51
2019-04-22T20:31:22.168Z,56.65
2019-04-22T20:34:01.353Z,56.90
2019-04-22T20:36:44.992Z,56.95
2019-04-22T20:38:58.145Z,57.23
2019-04-22T20:41:24.915Z,57.39
2019-04-22T20:44:11.049Z,57.49
2019-04-22T20:46:36.121Z,57.33
2019-04-22T20:49:11.620Z,57.60
2019-04-22T20:51:54.330Z,57.67
2019-04-22T20:54:17.397Z,57.84
2019-04-22T20:56:49.251Z,57.91
2019-04-22T20:59:24.044Z,58.09
2019-04-22T21:01:56.423Z,58.24
2019-04-22T21:04:23.968Z,58.14
2019-04-22T21:07:00.900Z,58.16
2019-04-22T21:09:33.323Z,58.02
2019-04-22T21:12:05.016Z,58.38
2019-04-22T21:14:41.460Z,58.26
2019-04-22T21:17:17.149Z,58.29
2019-04-22T21:19:58.375Z,58.40
2019-04-22T21:22:30.833Z,58.63
2019-04-22T21:24:52.294Z,58.58
2019-04-22T21:27:37.115Z,58.77
2019-04-22T21:29:55.964Z,58.08
2019-04-22T21:32:34.382Z,58.08
2019-04-22T21:35:11.778Z,58.32
2019-04-22T21:37:51.013Z,58.32
2019-04-22T21:40:20.153Z,59.01
2019-04-22T21:42:58.287Z,58.54
2019-04-22T21:45:19.363Z,58.52
2019-04-22T21:48:04.773Z,58.36
2019-04-22T21:50:41.555Z,58.64
2019-04-22T21:53:07.294Z,58.49
2019-04-22T21:55:43.766Z,58.73
2019-04-22T21:58:18.730Z,58.31
2019-04-22T22:01:33.043Z,58.31
2019-04-22T22:03:58.811Z,58.76
2019-04-22T22:06:19.034Z,58.83
2019-04-22T22:09:02.473Z,57.99
2019-04-22T22:11:27.719Z,58.24
2019-04-22T22:14:02.730Z,58.66
2019-04-22T22:16:31.920Z,58.66
2019-04-22T22:19:10.943Z,58.53
2019-04-22T22:21:51.240Z,58.33
2019-04-22T22:24:22.628Z,58.11
2019-04-22T22:26:50.412Z,58.53
2019-04-22T22:29:40.205Z,58.42
2019-04-22T22:32:03.208Z,57.99
2019-04-22T22:34:26.777Z,58.07
2019-04-22T22:36:56.141Z,58.02
2019-04-22T22:39:27.511Z,57.88
2019-04-22T22:41:50.029Z,57.88
2019-04-22T22:44:30.262Z,57.93
2019-04-22T22:47:15.625Z,57.48
2019-04-22T22:49:50.190Z,57.48
2019-04-22T22:52:45.393Z,57.36
2019-04-22T22:54:59.717Z,57.36
2019-04-22T22:57:33.093Z,57.01
2019-04-22T22:59:58.648Z,57.17
2019-04-22T23:02:36.921Z,57.14
2019-04-22T23:05:09.606Z,57.37
2019-04-22T23:07:47.539Z,57.51
2019-04-22T23:10:14.496Z,57.53
2019-04-22T23:13:08.418Z,57.33
2019-04-22T23:15:20.450Z,57.43
2019-04-22T23:17:38.967Z,57.43
2019-04-22T23:20:09.657Z,57.53
2019-04-22T23:23:12.340Z,57.25
2019-04-22T23:25:55.087Z,57.31
2019-04-22T23:28:24.501Z,57.14
2019-04-22T23:31:09.533Z,57.49
2019-04-22T23:33:54.692Z,57.49
2019-04-22T23:36:52.012Z,57.34
2019-04-22T23:39:30.928Z,57.58
2019-04-22T23:42:04.785Z,57.57
2019-04-22T23:44:30.815Z,57.40
2019-04-22T23:47:06.094Z,57.18
2019-04-22T23:49:35.331Z,57.33
2019-04-22T23:52:22.431Z,57.31
2019-04-22T23:54:56.559Z,57.51
2019-04-22T23:57:30.280Z,57.29
